createdAt,value
2022-12-14T05:03:33.475Z,44.29
2022-12-14T05:06:36.019Z,44.26
2022-12-14T05:09:20.480Z,44.33
2022-12-14T05:12:16.624Z,44.24
2022-12-14T05:15:06.876Z,44.31
2022-12-14T05:17:37.712Z,44.47
2022-12-14T05:20:12.749Z,44.57
2022-12-14T05:22:41.590Z,44.39
2022-12-14T05:25:09.973Z,44.18
2022-12-14T05:27:39.671Z,44.44
2022-12-14T05:30:08.921Z,44.12
2022-12-14T05:32:38.348Z,44.36
2022-12-14T05:35:07.976Z,44.20
2022-12-14T05:37:36.109Z,44.47
2022-12-14T05:40:04.293Z,44.17
2022-12-14T05:42:33.191Z,44.59
2022-12-14T05:45:03.139Z,44.25
2022-12-14T05:47:32.691Z,44.42
2022-12-14T05:50:00.668Z,44.33
2022-12-14T05:52:28.484Z,44.33
2022-12-14T05:55:02.429Z,44.47
2022-12-14T05:57:32.316Z,44.43
2022-12-14T06:00:00.612Z,44.58
2022-12-14T06:02:29.807Z,44.31
2022-12-14T06:04:58.037Z,44.54
2022-12-14T06:07:28.192Z,44.98
2022-12-14T06:09:56.399Z,44.65
2022-12-14T06:12:26.500Z,45.00
2022-12-14T06:14:54.829Z,45.21
2022-12-14T06:17:23.655Z,44.83
2022-12-14T06:19:53.215Z,44.81
2022-12-14T06:22:22.307Z,44.90
2022-12-14T06:24:52.252Z,44.87
2022-12-14T06:27:20.308Z,45.00
2022-12-14T06:29:48.206Z,45.17
2022-12-14T06:32:16.243Z,44.91
2022-12-14T06:34:47.063Z,45.00
2022-12-14T06:37:15.211Z,45.10
2022-12-14T06:39:43.136Z,45.28
2022-12-14T06:42:11.695Z,45.29
2022-12-14T06:44:44.120Z,44.89
2022-12-14T06:47:11.845Z,45.58
2022-12-14T06:49:40.887Z,45.26
2022-12-14T06:52:09.822Z,45.21
2022-12-14T06:54:37.670Z,45.60
2022-12-14T06:57:05.819Z,45.52
2022-12-14T06:59:35.076Z,45.67
2022-12-14T07:02:04.526Z,45.70
2022-12-14T07:04:34.618Z,45.71
2022-12-14T07:07:03.199Z,45.40
2022-12-14T07:09:32.495Z,45.59
2022-12-14T07:12:03.476Z,45.38
2022-12-14T07:14:31.369Z,45.67
2022-12-14T07:16:59.275Z,45.62
2022-12-14T07:19:27.245Z,45.32
2022-12-14T07:21:55.411Z,45.59
2022-12-14T07:24:23.635Z,45.38
2022-12-14T07:26:51.920Z,45.73
2022-12-14T07:29:19.946Z,45.75
2022-12-14T07:31:49.555Z,45.80
2022-12-14T07:34:18.721Z,45.72
2022-12-14T07:36:51.141Z,45.72
2022-12-14T07:39:20.864Z,46.13
2022-12-14T07:41:50.538Z,46.20
2022-12-14T07:44:22.139Z,45.98
2022-12-14T07:46:50.132Z,46.23
2022-12-14T07:49:18.219Z,45.82
2022-12-14T07:51:46.609Z,45.96
2022-12-14T07:54:14.576Z,46.20
2022-12-14T07:56:44.223Z,46.12
2022-12-14T07:59:15.943Z,45.87
2022-12-14T08:01:45.101Z,46.15
2022-12-14T08:04:18.817Z,46.04
2022-12-14T08:06:48.348Z,46.25
2022-12-14T08:09:17.586Z,46.40
2022-12-14T08:11:46.276Z,46.41
2022-12-14T08:14:19.317Z,45.94
2022-12-14T08:16:49.697Z,46.51
2022-12-14T08:19:19.192Z,46.33
2022-12-14T08:21:48.774Z,46.22
2022-12-14T08:24:17.129Z,46.76
2022-12-14T08:26:49.284Z,46.50
2022-12-14T08:29:19.002Z,46.66
2022-12-14T08:31:48.047Z,46.78
2022-12-14T08:34:22.953Z,46.72
2022-12-14T08:36:51.566Z,46.95
2022-12-14T08:39:19.938Z,47.57
2022-12-14T08:41:48.338Z,47.40
2022-12-14T08:44:17.851Z,47.54
2022-12-14T08:46:45.674Z,48.05
2022-12-14T08:49:14.571Z,48.13
2022-12-14T08:51:42.881Z,48.95
2022-12-14T08:54:11.418Z,49.18
2022-12-14T08:56:39.624Z,49.34
2022-12-14T08:59:07.642Z,49.19
2022-12-14T09:01:35.727Z,49.50
2022-12-14T09:04:06.562Z,49.23
2022-12-14T09:06:39.302Z,49.29
2022-12-14T09:09:15.468Z,49.56
2022-12-14T09:11:45.318Z,49.53
2022-12-14T09:14:13.799Z,49.59
2022-12-14T09:16:42.222Z,49.72
2022-12-14T09:19:10.241Z,49.74
2022-12-14T09:21:38.759Z,49.62
2022-12-14T09:24:07.448Z,49.55
2022-12-14T09:26:35.385Z,49.76
2022-12-14T09:29:03.858Z,49.78
2022-12-14T09:31:31.644Z,49.62
2022-12-14T09:34:00.184Z,49.83
2022-12-14T09:36:29.248Z,49.97
2022-12-14T09:38:58.265Z,49.69
2022-12-14T09:41:35.403Z,49.68
2022-12-14T09:45:03.024Z,50.13
2022-12-14T09:48:14.623Z,49.88
2022-12-14T09:50:46.817Z,49.92
2022-12-14T09:53:17.248Z,49.83
2022-12-14T09:55:51.544Z,50.18
2022-12-14T09:58:32.514Z,49.98
2022-12-14T10:01:24.581Z,50.35
2022-12-14T10:04:10.086Z,50.12
2022-12-14T10:06:46.842Z,50.35
2022-12-14T10:09:31.560Z,50.26
2022-12-14T10:12:55.687Z,50.67
2022-12-14T10:15:55.612Z,50.29
2022-12-14T10:19:01.214Z,50.48
2022-12-14T10:21:43.496Z,50.48
2022-12-14T10:24:25.711Z,50.49
2022-12-14T10:26:56.748Z,50.49
2022-12-14T10:29:47.806Z,50.58
2022-12-14T10:32:37.354Z,50.50
2022-12-14T10:35:26.106Z,50.63
2022-12-14T10:38:03.942Z,50.60
2022-12-14T10:41:00.375Z,50.83
2022-12-14T10:44:11.164Z,50.46
2022-12-14T10:47:16.650Z,50.64
2022-12-14T10:50:04.471Z,50.64
2022-12-14T10:52:41.841Z,50.79
2022-12-14T10:55:21.100Z,50.46
2022-12-14T10:57:52.023Z,50.71
2022-12-14T11:00:23.912Z,50.93
2022-12-14T11:02:57.056Z,50.93
2022-12-14T11:06:00.151Z,50.83
2022-12-14T11:08:58.048Z,50.45
2022-12-14T11:11:27.194Z,50.87
2022-12-14T11:14:09.171Z,50.97
2022-12-14T11:16:41.174Z,50.57
2022-12-14T11:19:22.482Z,50.70
2022-12-14T11:22:06.341Z,51.10
2022-12-14T11:24:46.733Z,50.79
2022-12-14T11:27:21.828Z,51.08
2022-12-14T11:29:51.318Z,51.12
2022-12-14T11:32:26.625Z,51.04
2022-12-14T11:34:59.625Z,51.09
2022-12-14T11:37:32.746Z,50.77
2022-12-14T11:40:06.847Z,50.67
2022-12-14T11:42:36.168Z,51.12
2022-12-14T11:45:25.977Z,50.99
2022-12-14T11:48:16.168Z,50.96
2022-12-14T11:50:47.744Z,51.11
2022-12-14T11:53:18.690Z,50.97
2022-12-14T11:55:59.815Z,51.15
2022-12-14T11:58:33.737Z,51.11
2022-12-14T12:01:27.980Z,51.25
2022-12-14T12:03:58.678Z,51.08
2022-12-14T12:06:29.940Z,51.30
2022-12-14T12:09:14.288Z,51.26
2022-12-14T12:11:46.359Z,51.16
2022-12-14T12:14:36.074Z,51.25
2022-12-14T12:17:20.535Z,50.88
2022-12-14T12:19:51.627Z,50.81
2022-12-14T12:22:21.329Z,51.06
2022-12-14T12:25:24.814Z,50.91
2022-12-14T12:28:00.881Z,50.83
2022-12-14T12:30:36.456Z,50.94
2022-12-14T12:33:35.385Z,51.13
2022-12-14T12:36:06.739Z,51.39
2022-12-14T12:39:15.744Z,51.24
2022-12-14T12:42:04.981Z,51.41
2022-12-14T12:45:21.354Z,51.38
2022-12-14T12:48:07.831Z,51.43
2022-12-14T12:50:49.571Z,51.34
2022-12-14T12:53:44.350Z,51.12
2022-12-14T12:56:20.536Z,51.48
2022-12-14T12:58:53.094Z,51.53
2022-12-14T13:01:36.195Z,51.14
2022-12-14T13:04:11.490Z,51.39
2022-12-14T13:07:03.560Z,51.33
2022-12-14T13:09:49.993Z,51.08
2022-12-14T13:12:39.592Z,51.10
2022-12-14T13:15:30.529Z,51.34
2022-12-14T13:18:33.803Z,51.19
2022-12-14T13:21:28.654Z,51.33
2022-12-14T13:24:00.141Z,51.51
2022-12-14T13:27:35.368Z,51.39
2022-12-14T13:30:48.306Z,51.52
2022-12-14T13:33:59.557Z,51.64
2022-12-14T13:36:52.655Z,51.90
2022-12-14T13:40:06.748Z,51.46
2022-12-14T13:43:08.537Z,51.85
2022-12-14T13:45:42.711Z,51.79
2022-12-14T13:48:28.696Z,51.56
2022-12-14T13:51:33.107Z,51.91
2022-12-14T13:54:06.592Z,51.77
2022-12-14T13:56:39.774Z,51.99
2022-12-14T13:59:33.526Z,51.85
2022-12-14T14:02:05.380Z,51.84
2022-12-14T14:04:36.907Z,52.23
2022-12-14T14:07:23.700Z,51.99
2022-12-14T14:10:08.565Z,52.19
2022-12-14T14:12:44.222Z,52.02
2022-12-14T14:16:03.898Z,52.07
2022-12-14T14:18:37.293Z,52.06
2022-12-14T14:21:21.387Z,52.15
2022-12-14T14:24:22.174Z,51.97
2022-12-14T14:27:23.790Z,52.15
2022-12-14T14:29:53.529Z,52.11
2022-12-14T14:32:39.927Z,52.33
2022-12-14T14:35:37.891Z,52.15
2022-12-14T14:38:31.344Z,52.32
2022-12-14T14:41:17.008Z,52.64
2022-12-14T14:44:03.761Z,52.32
2022-12-14T14:46:41.425Z,52.82
2022-12-14T14:49:39.861Z,52.68
2022-12-14T14:52:42.172Z,53.03
2022-12-14T14:58:32.777Z,53.18
2022-12-14T15:01:12.402Z,52.95
2022-12-14T15:04:02.513Z,52.92
2022-12-14T15:06:42.786Z,52.92
2022-12-14T15:09:34.102Z,52.87
2022-12-14T15:12:37.984Z,52.85
2022-12-14T15:15:23.575Z,52.96
2022-12-14T15:17:53.564Z,53.01
2022-12-14T15:20:29.950Z,52.94
2022-12-14T15:22:58.452Z,52.90
2022-12-14T15:25:30.161Z,52.97
2022-12-14T15:28:06.111Z,52.69
2022-12-14T15:30:36.108Z,52.95
2022-12-14T15:33:19.923Z,52.66
2022-12-14T15:35:49.504Z,52.92
2022-12-14T15:38:26.219Z,52.94
2022-12-14T15:41:02.750Z,53.00
2022-12-14T15:43:32.341Z,52.95
2022-12-14T15:46:03.616Z,53.18
2022-12-14T15:48:34.872Z,52.91
2022-12-14T15:51:17.858Z,52.81
2022-12-14T15:53:55.116Z,52.75
2022-12-14T15:56:37.315Z,52.94
2022-12-14T15:59:35.351Z,52.70
2022-12-14T16:02:32.158Z,52.99
2022-12-14T16:05:07.855Z,53.01
2022-12-14T16:07:40.501Z,52.80
2022-12-14T16:10:18.265Z,52.77
2022-12-14T16:12:50.054Z,52.63
2022-12-14T16:15:24.281Z,53.09
2022-12-14T16:18:01.672Z,53.04
2022-12-14T16:20:35.823Z,52.95
2022-12-14T16:23:28.708Z,52.93
2022-12-14T16:26:19.548Z,52.66
2022-12-14T16:28:48.208Z,52.67
2022-12-14T16:31:24.573Z,52.71
2022-12-14T16:34:19.000Z,52.48
2022-12-14T16:37:08.448Z,52.92
2022-12-14T16:39:48.596Z,52.87
2022-12-14T16:42:26.576Z,52.56
2022-12-14T16:44:55.037Z,52.49
2022-12-14T16:47:35.388Z,52.45
2022-12-14T16:53:23.470Z,52.65
2022-12-14T16:56:04.540Z,52.25
2022-12-14T16:58:35.484Z,52.55
2022-12-14T17:01:08.729Z,52.50
2022-12-14T17:03:38.626Z,52.38
2022-12-14T17:06:07.806Z,52.39
2022-12-14T17:08:36.941Z,52.32
2022-12-14T17:11:05.998Z,52.59
2022-12-14T17:13:34.468Z,52.37
2022-12-14T17:16:14.048Z,52.15
2022-12-14T17:18:43.404Z,52.08
2022-12-14T17:21:24.119Z,51.96
2022-12-14T17:23:56.478Z,52.38
2022-12-14T17:26:29.308Z,52.16
2022-12-14T17:28:59.020Z,52.18
2022-12-14T17:31:27.841Z,52.37
2022-12-14T17:33:57.542Z,51.84
2022-12-14T17:36:25.653Z,52.31
2022-12-14T17:38:53.826Z,52.12
2022-12-14T17:41:27.083Z,52.17
2022-12-14T17:43:57.548Z,51.83
2022-12-14T17:46:27.153Z,52.01
2022-12-14T17:48:58.365Z,51.88
2022-12-14T17:51:30.403Z,51.63
2022-12-14T17:53:59.835Z,51.78
2022-12-14T17:56:28.368Z,51.73
2022-12-14T17:58:56.751Z,51.39
2022-12-14T18:01:26.547Z,51.52
2022-12-14T18:03:55.367Z,51.35
2022-12-14T18:06:24.983Z,51.33
2022-12-14T18:08:54.124Z,51.08
2022-12-14T18:11:29.034Z,51.05
2022-12-14T18:13:57.534Z,51.13
2022-12-14T18:16:28.045Z,50.95
2022-12-14T18:18:58.885Z,51.22
2022-12-14T18:21:30.093Z,51.16
2022-12-14T18:23:58.392Z,50.94
2022-12-14T18:26:28.185Z,51.20
2022-12-14T18:28:57.984Z,50.97
2022-12-14T18:31:38.395Z,50.63
2022-12-14T18:34:10.632Z,50.86
2022-12-14T18:36:39.905Z,50.97
2022-12-14T18:39:12.564Z,50.79
2022-12-14T18:41:42.084Z,50.87
2022-12-14T18:44:11.729Z,50.77
2022-12-14T18:46:40.232Z,50.76
2022-12-14T18:49:09.528Z,50.41
2022-12-14T18:51:38.873Z,50.23
2022-12-14T18:54:07.443Z,50.63
2022-12-14T18:56:36.720Z,50.65
2022-12-14T18:59:05.713Z,50.80
2022-12-14T19:01:34.210Z,50.30
2022-12-14T19:04:04.744Z,50.27
2022-12-14T19:06:48.698Z,50.65
2022-12-14T19:09:18.025Z,50.63
2022-12-14T19:12:00.465Z,50.70
2022-12-14T19:14:29.869Z,50.47
2022-12-14T19:16:58.268Z,50.73
2022-12-14T19:19:33.418Z,50.71
2022-12-14T19:22:08.324Z,50.43
2022-12-14T19:24:36.715Z,50.38
2022-12-14T19:27:06.859Z,50.11
2022-12-14T19:29:37.699Z,50.01
2022-12-14T19:32:06.200Z,50.00
2022-12-14T19:34:35.144Z,50.06
2022-12-14T19:37:04.139Z,49.77
2022-12-14T19:39:33.526Z,49.98
2022-12-14T19:42:02.276Z,50.29
2022-12-14T19:44:34.513Z,50.31
2022-12-14T19:47:04.760Z,50.01
2022-12-14T19:49:36.535Z,50.37
2022-12-14T19:52:06.283Z,50.14
2022-12-14T19:54:35.462Z,50.13
2022-12-14T19:57:05.459Z,50.10
2022-12-14T19:59:36.154Z,50.32
2022-12-14T20:02:06.659Z,50.10
2022-12-14T20:04:40.894Z,50.34
2022-12-14T20:07:10.100Z,50.16
2022-12-14T20:09:41.105Z,49.85
2022-12-14T20:12:11.899Z,50.21
2022-12-14T20:14:40.440Z,50.09
2022-12-14T20:17:11.016Z,49.86
2022-12-14T20:19:41.312Z,49.72
2022-12-14T20:22:11.404Z,49.91
2022-12-14T20:24:40.419Z,49.84
2022-12-14T20:27:09.295Z,49.57
2022-12-14T20:29:37.979Z,49.92
2022-12-14T20:32:07.151Z,49.77
2022-12-14T20:34:39.166Z,49.92
2022-12-14T20:37:08.942Z,49.58
2022-12-14T20:39:37.362Z,49.79
2022-12-14T20:42:06.194Z,49.40
